sensor_id;sensor_type;location;lat;lon;timestamp;P1;durP1;ratioP1;P2;durP2;ratioP2
8281;SDS011;25606;42.686;23.136;2023-03-01T00:00:05;8.80;;;7.23;;
8281;SDS011;25606;42.686;23.136;2023-03-01T00:02:35;9.23;;;6.73;;
8281;SDS011;25606;42.686;23.136;2023-03-01T00:05:02;9.00;;;6.23;;
8281;SDS011;25606;42.686;23.136;2023-03-01T00:07:30;5.77;;;4.60;;
8281;SDS011;25606;42.686;23.136;2023-03-01T00:09:57;7.07;;;5.30;;
8281;SDS011;25606;42.686;23.136;2023-03-01T00:12:24;7.07;;;4.93;;
8281;SDS011;25606;42.686;23.136;2023-03-01T00:14:52;5.77;;;4.83;;
8281;SDS011;25606;42.686;23.136;2023-03-01T00:17:20;7.63;;;5.93;;
8281;SDS011;25606;42.686;23.136;2023-03-01T00:19:48;10.07;;;7.33;;
8281;SDS011;25606;42.686;23.136;2023-03-01T00:22:16;6.57;;;5.60;;
8281;SDS011;25606;42.686;23.136;2023-03-01T00:24:43;6.10;;;5.30;;
8281;SDS011;25606;42.686;23.136;2023-03-01T00:27:10;7.77;;;6.00;;
8281;SDS011;25606;42.686;23.136;2023-03-01T00:29:37;8.03;;;5.57;;
8281;SDS011;25606;42.686;23.136;2023-03-01T00:32:05;6.93;;;5.60;;
8281;SDS011;25606;42.686;23.136;2023-03-01T00:34:32;5.80;;;5.03;;
8281;SDS011;25606;42.686;23.136;2023-03-01T00:37:01;7.73;;;5.50;;
8281;SDS011;25606;42.686;23.136;2023-03-01T00:39:30;9.87;;;8.27;;
8281;SDS011;25606;42.686;23.136;2023-03-01T00:41:57;16.70;;;12.10;;
8281;SDS011;25606;42.686;23.136;2023-03-01T00:44:25;38.77;;;25.07;;
8281;SDS011;25606;42.686;23.136;2023-03-01T00:46:53;25.20;;;18.63;;
8281;SDS011;25606;42.686;23.136;2023-03-01T00:49:20;22.50;;;16.90;;
8281;SDS011;25606;42.686;23.136;2023-03-01T00:51:49;30.93;;;25.87;;
8281;SDS011;25606;42.686;23.136;2023-03-01T00:54:18;24.17;;;20.30;;
8281;SDS011;25606;42.686;23.136;2023-03-01T00:56:45;19.87;;;15.57;;
8281;SDS011;25606;42.686;23.136;2023-03-01T00:59:12;21.87;;;16.90;;
8281;SDS011;25606;42.686;23.136;2023-03-01T01:01:39;19.77;;;16.17;;
8281;SDS011;25606;42.686;23.136;2023-03-01T01:04:07;16.37;;;13.80;;
8281;SDS011;25606;42.686;23.136;2023-03-01T01:06:36;12.97;;;10.20;;
8281;SDS011;25606;42.686;23.136;2023-03-01T01:09:03;10.07;;;8.77;;
8281;SDS011;25606;42.686;23.136;2023-03-01T01:11:33;10.33;;;8.50;;
8281;SDS011;25606;42.686;23.136;2023-03-01T01:14:01;10.07;;;7.93;;
8281;SDS011;25606;42.686;23.136;2023-03-01T01:16:29;9.00;;;7.60;;
8281;SDS011;25606;42.686;23.136;2023-03-01T01:18:56;8.07;;;6.40;;
8281;SDS011;25606;42.686;23.136;2023-03-01T01:21:24;7.83;;;6.13;;
8281;SDS011;25606;42.686;23.136;2023-03-01T01:23:52;8.33;;;6.00;;
8281;SDS011;25606;42.686;23.136;2023-03-01T01:26:21;7.57;;;5.97;;
8281;SDS011;25606;42.686;23.136;2023-03-01T01:28:51;5.73;;;5.13;;
8281;SDS011;25606;42.686;23.136;2023-03-01T01:31:19;5.73;;;4.80;;
8281;SDS011;25606;42.686;23.136;2023-03-01T01:33:50;4.60;;;4.20;;
8281;SDS011;25606;42.686;23.136;2023-03-01T01:36:17;4.40;;;3.97;;
8281;SDS011;25606;42.686;23.136;2023-03-01T01:38:45;4.33;;;3.93;;
8281;SDS011;25606;42.686;23.136;2023-03-01T01:41:12;4.83;;;4.23;;
8281;SDS011;25606;42.686;23.136;2023-03-01T01:43:40;4.30;;;3.90;;
8281;SDS011;25606;42.686;23.136;2023-03-01T01:46:13;3.93;;;3.50;;
8281;SDS011;25606;42.686;23.136;2023-03-01T01:48:43;3.40;;;3.10;;
8281;SDS011;25606;42.686;23.136;2023-03-01T01:51:12;3.53;;;3.23;;
8281;SDS011;25606;42.686;23.136;2023-03-01T01:53:40;3.50;;;3.13;;
8281;SDS011;25606;42.686;23.136;2023-03-01T01:56:09;3.90;;;3.37;;
8281;SDS011;25606;42.686;23.136;2023-03-01T01:58:37;3.77;;;3.33;;
8281;SDS011;25606;42.686;23.136;2023-03-01T02:01:05;3.60;;;3.30;;
8281;SDS011;25606;42.686;23.136;2023-03-01T02:03:34;3.47;;;3.17;;
8281;SDS011;25606;42.686;23.136;2023-03-01T02:06:06;3.23;;;2.93;;
8281;SDS011;25606;42.686;23.136;2023-03-01T02:08:38;3.40;;;3.10;;
8281;SDS011;25606;42.686;23.136;2023-03-01T02:11:06;3.20;;;2.90;;
8281;SDS011;25606;42.686;23.136;2023-03-01T02:13:34;3.00;;;2.70;;
8281;SDS011;25606;42.686;23.136;2023-03-01T02:16:02;3.70;;;2.67;;
8281;SDS011;25606;42.686;23.136;2023-03-01T02:18:30;3.33;;;2.90;;
8281;SDS011;25606;42.686;23.136;2023-03-01T02:21:08;2.80;;;2.50;;
8281;SDS011;25606;42.686;23.136;2023-03-01T02:23:38;3.23;;;2.93;;
8281;SDS011;25606;42.686;23.136;2023-03-01T02:26:07;2.97;;;2.67;;
8281;SDS011;25606;42.686;23.136;2023-03-01T02:28:40;3.13;;;2.70;;
8281;SDS011;25606;42.686;23.136;2023-03-01T02:31:09;2.90;;;2.67;;
8281;SDS011;25606;42.686;23.136;2023-03-01T02:33:54;2.70;;;2.50;;
8281;SDS011;25606;42.686;23.136;2023-03-01T02:36:23;2.93;;;2.53;;
8281;SDS011;25606;42.686;23.136;2023-03-01T02:38:51;2.60;;;2.40;;
8281;SDS011;25606;42.686;23.136;2023-03-01T02:41:19;2.50;;;2.30;;
8281;SDS011;25606;42.686;23.136;2023-03-01T02:43:49;2.33;;;2.13;;
8281;SDS011;25606;42.686;23.136;2023-03-01T02:46:16;3.30;;;3.00;;
8281;SDS011;25606;42.686;23.136;2023-03-01T02:48:45;2.63;;;2.40;;
8281;SDS011;25606;42.686;23.136;2023-03-01T02:51:17;2.40;;;2.20;;
8281;SDS011;25606;42.686;23.136;2023-03-01T02:53:52;2.50;;;2.30;;
8281;SDS011;25606;42.686;23.136;2023-03-01T02:56:22;3.77;;;2.70;;
8281;SDS011;25606;42.686;23.136;2023-03-01T02:58:50;2.80;;;2.60;;
8281;SDS011;25606;42.686;23.136;2023-03-01T03:01:18;2.83;;;2.63;;
8281;SDS011;25606;42.686;23.136;2023-03-01T03:03:46;3.10;;;2.80;;
8281;SDS011;25606;42.686;23.136;2023-03-01T03:06:13;3.30;;;3.03;;
8281;SDS011;25606;42.686;23.136;2023-03-01T03:08:41;3.30;;;3.00;;
8281;SDS011;25606;42.686;23.136;2023-03-01T03:11:09;2.60;;;2.40;;
8281;SDS011;25606;42.686;23.136;2023-03-01T03:13:36;2.67;;;2.40;;
8281;SDS011;25606;42.686;23.136;2023-03-01T03:16:14;3.30;;;3.00;;
8281;SDS011;25606;42.686;23.136;2023-03-01T03:18:41;4.73;;;3.27;;
8281;SDS011;25606;42.686;23.136;2023-03-01T03:21:09;3.30;;;3.00;;
8281;SDS011;25606;42.686;23.136;2023-03-01T03:23:36;3.80;;;3.47;;
8281;SDS011;25606;42.686;23.136;2023-03-01T03:26:05;3.30;;;3.00;;
8281;SDS011;25606;42.686;23.136;2023-03-01T03:28:33;4.23;;;3.83;;
8281;SDS011;25606;42.686;23.136;2023-03-01T03:31:00;4.13;;;3.73;;
8281;SDS011;25606;42.686;23.136;2023-03-01T03:33:30;4.03;;;3.63;;
8281;SDS011;25606;42.686;23.136;2023-03-01T03:35:57;4.10;;;3.70;;
8281;SDS011;25606;42.686;23.136;2023-03-01T03:38:25;4.97;;;3.63;;
8281;SDS011;25606;42.686;23.136;2023-03-01T03:40:55;4.70;;;4.20;;
8281;SDS011;25606;42.686;23.136;2023-03-01T03:43:27;5.30;;;4.00;;
8281;SDS011;25606;42.686;23.136;2023-03-01T03:45:54;4.63;;;3.90;;
8281;SDS011;25606;42.686;23.136;2023-03-01T03:48:23;4.47;;;3.50;;
8281;SDS011;25606;42.686;23.136;2023-03-01T03:50:53;3.90;;;3.50;;
8281;SDS011;25606;42.686;23.136;2023-03-01T03:53:21;4.47;;;3.80;;
8281;SDS011;25606;42.686;23.136;2023-03-01T03:55:48;3.73;;;3.33;;
8281;SDS011;25606;42.686;23.136;2023-03-01T03:58:16;6.13;;;3.63;;
8281;SDS011;25606;42.686;23.136;2023-03-01T04:00:44;3.77;;;2.87;;
8281;SDS011;25606;42.686;23.136;2023-03-01T04:03:13;3.17;;;2.87;;
8281;SDS011;25606;42.686;23.136;2023-03-01T04:05:40;3.13;;;2.63;;
8281;SDS011;25606;42.686;23.136;2023-03-01T04:08:10;3.60;;;2.63;;
8281;SDS011;25606;42.686;23.136;2023-03-01T04:10:38;3.60;;;3.30;;
8281;SDS011;25606;42.686;23.136;2023-03-01T04:13:06;3.23;;;2.60;;
8281;SDS011;25606;42.686;23.136;2023-03-01T04:15:33;3.10;;;2.80;;
8281;SDS011;25606;42.686;23.136;2023-03-01T04:18:00;2.70;;;2.47;;
8281;SDS011;25606;42.686;23.136;2023-03-01T04:20:29;3.27;;;2.63;;
8281;SDS011;25606;42.686;23.136;2023-03-01T04:22:58;3.43;;;2.77;;
8281;SDS011;25606;42.686;23.136;2023-03-01T04:25:36;2.73;;;2.50;;
8281;SDS011;25606;42.686;23.136;2023-03-01T04:28:04;3.37;;;2.70;;
8281;SDS011;25606;42.686;23.136;2023-03-01T04:30:31;2.90;;;2.60;;
8281;SDS011;25606;42.686;23.136;2023-03-01T04:33:01;2.93;;;2.40;;
8281;SDS011;25606;42.686;23.136;2023-03-01T04:35:28;2.77;;;2.40;;
8281;SDS011;25606;42.686;23.136;2023-03-01T04:37:56;2.40;;;2.20;;
8281;SDS011;25606;42.686;23.136;2023-03-01T04:40:23;2.50;;;2.30;;
8281;SDS011;25606;42.686;23.136;2023-03-01T04:42:52;2.33;;;1.90;;
8281;SDS011;25606;42.686;23.136;2023-03-01T04:45:19;2.20;;;2.00;;
8281;SDS011;25606;42.686;23.136;2023-03-01T04:47:46;2.33;;;2.10;;
8281;SDS011;25606;42.686;23.136;2023-03-01T04:50:14;2.70;;;2.40;;
8281;SDS011;25606;42.686;23.136;2023-03-01T04:52:42;2.40;;;2.20;;
8281;SDS011;25606;42.686;23.136;2023-03-01T04:55:09;3.37;;;2.10;;
8281;SDS011;25606;42.686;23.136;2023-03-01T04:57:37;2.30;;;2.10;;
8281;SDS011;25606;42.686;23.136;2023-03-01T05:00:07;2.43;;;2.07;;
8281;SDS011;25606;42.686;23.136;2023-03-01T05:02:45;2.83;;;2.60;;
8281;SDS011;25606;42.686;23.136;2023-03-01T05:05:13;5.10;;;2.50;;
8281;SDS011;25606;42.686;23.136;2023-03-01T05:07:40;3.60;;;3.10;;
8281;SDS011;25606;42.686;23.136;2023-03-01T05:10:08;2.90;;;2.40;;
8281;SDS011;25606;42.686;23.136;2023-03-01T05:12:35;2.57;;;2.37;;
8281;SDS011;25606;42.686;23.136;2023-03-01T05:15:03;3.37;;;2.27;;
8281;SDS011;25606;42.686;23.136;2023-03-01T05:17:33;5.23;;;3.13;;
8281;SDS011;25606;42.686;23.136;2023-03-01T05:20:01;3.20;;;2.90;;
8281;SDS011;25606;42.686;23.136;2023-03-01T05:22:32;3.77;;;2.97;;
8281;SDS011;25606;42.686;23.136;2023-03-01T05:24:59;3.13;;;2.83;;
8281;SDS011;25606;42.686;23.136;2023-03-01T05:27:26;3.40;;;2.77;;
8281;SDS011;25606;42.686;23.136;2023-03-01T05:29:54;3.10;;;2.90;;
8281;SDS011;25606;42.686;23.136;2023-03-01T05:32:22;4.30;;;2.90;;
8281;SDS011;25606;42.686;23.136;2023-03-01T05:34:50;4.07;;;3.73;;
8281;SDS011;25606;42.686;23.136;2023-03-01T05:37:20;4.60;;;4.20;;
8281;SDS011;25606;42.686;23.136;2023-03-01T05:39:47;4.57;;;3.60;;
8281;SDS011;25606;42.686;23.136;2023-03-01T05:42:15;6.83;;;4.27;;
8281;SDS011;25606;42.686;23.136;2023-03-01T05:44:43;5.93;;;4.10;;
8281;SDS011;25606;42.686;23.136;2023-03-01T05:47:10;9.03;;;4.43;;
8281;SDS011;25606;42.686;23.136;2023-03-01T05:49:37;5.30;;;4.70;;
8281;SDS011;25606;42.686;23.136;2023-03-01T05:52:06;5.77;;;4.87;;
8281;SDS011;25606;42.686;23.136;2023-03-01T05:54:33;5.20;;;4.70;;
8281;SDS011;25606;42.686;23.136;2023-03-01T05:57:01;6.90;;;4.30;;
8281;SDS011;25606;42.686;23.136;2023-03-01T05:59:28;8.17;;;5.20;;
8281;SDS011;25606;42.686;23.136;2023-03-01T06:01:55;6.40;;;5.80;;
8281;SDS011;25606;42.686;23.136;2023-03-01T06:04:22;5.70;;;5.17;;
8281;SDS011;25606;42.686;23.136;2023-03-01T06:06:50;9.77;;;5.90;;
8281;SDS011;25606;42.686;23.136;2023-03-01T06:09:18;5.50;;;4.83;;
8281;SDS011;25606;42.686;23.136;2023-03-01T06:11:46;5.40;;;4.37;;
8281;SDS011;25606;42.686;23.136;2023-03-01T06:14:13;4.60;;;4.20;;
8281;SDS011;25606;42.686;23.136;2023-03-01T06:16:40;6.57;;;4.43;;
8281;SDS011;25606;42.686;23.136;2023-03-01T06:19:07;5.33;;;4.13;;
8281;SDS011;25606;42.686;23.136;2023-03-01T06:21:35;4.67;;;4.23;;
8281;SDS011;25606;42.686;23.136;2023-03-01T06:24:02;4.53;;;4.13;;
8281;SDS011;25606;42.686;23.136;2023-03-01T06:26:32;4.93;;;4.37;;
8281;SDS011;25606;42.686;23.136;2023-03-01T06:28:59;6.53;;;5.27;;
8281;SDS011;25606;42.686;23.136;2023-03-01T06:31:26;7.57;;;5.97;;
8281;SDS011;25606;42.686;23.136;2023-03-01T06:33:54;6.07;;;5.00;;
8281;SDS011;25606;42.686;23.136;2023-03-01T06:36:22;6.03;;;4.93;;
8281;SDS011;25606;42.686;23.136;2023-03-01T06:38:49;6.10;;;4.57;;
8281;SDS011;25606;42.686;23.136;2023-03-01T06:41:17;5.83;;;4.10;;
8281;SDS011;25606;42.686;23.136;2023-03-01T06:43:45;8.23;;;4.20;;
8281;SDS011;25606;42.686;23.136;2023-03-01T06:46:13;7.30;;;4.60;;
8281;SDS011;25606;42.686;23.136;2023-03-01T06:48:40;6.73;;;4.10;;
8281;SDS011;25606;42.686;23.136;2023-03-01T06:51:07;5.37;;;4.23;;
8281;SDS011;25606;42.686;23.136;2023-03-01T06:53:35;6.73;;;4.80;;
8281;SDS011;25606;42.686;23.136;2023-03-01T06:56:02;8.20;;;5.23;;
8281;SDS011;25606;42.686;23.136;2023-03-01T06:58:30;6.30;;;5.07;;
8281;SDS011;25606;42.686;23.136;2023-03-01T07:00:58;8.23;;;4.77;;
8281;SDS011;25606;42.686;23.136;2023-03-01T07:03:25;5.27;;;4.10;;
8281;SDS011;25606;42.686;23.136;2023-03-01T07:05:53;6.50;;;4.63;;
8281;SDS011;25606;42.686;23.136;2023-03-01T07:08:20;4.73;;;4.17;;
8281;SDS011;25606;42.686;23.136;2023-03-01T07:10:47;5.30;;;4.23;;
8281;SDS011;25606;42.686;23.136;2023-03-01T07:13:14;5.57;;;4.77;;
8281;SDS011;25606;42.686;23.136;2023-03-01T07:15:42;6.53;;;4.20;;
8281;SDS011;25606;42.686;23.136;2023-03-01T07:18:10;4.97;;;4.47;;
8281;SDS011;25606;42.686;23.136;2023-03-01T07:20:38;8.70;;;6.57;;
8281;SDS011;25606;42.686;23.136;2023-03-01T07:23:05;6.23;;;4.73;;
8281;SDS011;25606;42.686;23.136;2023-03-01T07:25:32;6.37;;;4.40;;
8281;SDS011;25606;42.686;23.136;2023-03-01T07:28:00;8.77;;;5.13;;
8281;SDS011;25606;42.686;23.136;2023-03-01T07:30:28;23.80;;;14.63;;
8281;SDS011;25606;42.686;23.136;2023-03-01T07:32:57;5.43;;;4.10;;
8281;SDS011;25606;42.686;23.136;2023-03-01T07:35:26;5.20;;;4.30;;
8281;SDS011;25606;42.686;23.136;2023-03-01T07:38:00;5.40;;;4.40;;
8281;SDS011;25606;42.686;23.136;2023-03-01T07:40:28;4.90;;;4.33;;
8281;SDS011;25606;42.686;23.136;2023-03-01T07:42:56;4.70;;;4.20;;
8281;SDS011;25606;42.686;23.136;2023-03-01T07:45:24;4.47;;;4.07;;
8281;SDS011;25606;42.686;23.136;2023-03-01T07:47:52;10.13;;;5.40;;
8281;SDS011;25606;42.686;23.136;2023-03-01T07:50:19;9.30;;;6.37;;
8281;SDS011;25606;42.686;23.136;2023-03-01T07:52:50;8.07;;;6.10;;
8281;SDS011;25606;42.686;23.136;2023-03-01T07:55:17;6.30;;;4.70;;
8281;SDS011;25606;42.686;23.136;2023-03-01T07:57:45;5.37;;;4.77;;
8281;SDS011;25606;42.686;23.136;2023-03-01T08:00:13;5.67;;;4.73;;
8281;SDS011;25606;42.686;23.136;2023-03-01T08:02:40;5.53;;;4.70;;
8281;SDS011;25606;42.686;23.136;2023-03-01T08:05:08;5.93;;;4.27;;
8281;SDS011;25606;42.686;23.136;2023-03-01T08:07:36;5.53;;;4.23;;
8281;SDS011;25606;42.686;23.136;2023-03-01T08:10:06;7.10;;;4.30;;
8281;SDS011;25606;42.686;23.136;2023-03-01T08:12:37;5.47;;;4.67;;
8281;SDS011;25606;42.686;23.136;2023-03-01T08:15:04;6.70;;;5.70;;
8281;SDS011;25606;42.686;23.136;2023-03-01T08:17:32;7.17;;;6.43;;
8281;SDS011;25606;42.686;23.136;2023-03-01T08:19:59;8.60;;;7.27;;
8281;SDS011;25606;42.686;23.136;2023-03-01T08:22:28;5.00;;;4.53;;
8281;SDS011;25606;42.686;23.136;2023-03-01T08:24:56;4.77;;;4.30;;
8281;SDS011;25606;42.686;23.136;2023-03-01T08:27:25;4.90;;;3.77;;
8281;SDS011;25606;42.686;23.136;2023-03-01T08:29:56;6.97;;;4.90;;
8281;SDS011;25606;42.686;23.136;2023-03-01T08:32:24;5.43;;;4.07;;
8281;SDS011;25606;42.686;23.136;2023-03-01T08:34:51;6.50;;;4.57;;
8281;SDS011;25606;42.686;23.136;2023-03-01T08:37:18;5.30;;;4.80;;
8281;SDS011;25606;42.686;23.136;2023-03-01T08:39:46;5.07;;;4.17;;
8281;SDS011;25606;42.686;23.136;2023-03-01T08:42:13;5.43;;;3.90;;
8281;SDS011;25606;42.686;23.136;2023-03-01T08:44:43;5.00;;;4.13;;
8281;SDS011;25606;42.686;23.136;2023-03-01T08:47:11;5.90;;;4.70;;
8281;SDS011;25606;42.686;23.136;2023-03-01T08:49:39;5.63;;;4.87;;
8281;SDS011;25606;42.686;23.136;2023-03-01T08:52:07;6.07;;;4.40;;
8281;SDS011;25606;42.686;23.136;2023-03-01T08:54:35;4.97;;;4.47;;
8281;SDS011;25606;42.686;23.136;2023-03-01T08:57:03;5.80;;;4.53;;
8281;SDS011;25606;42.686;23.136;2023-03-01T08:59:30;6.40;;;5.00;;
8281;SDS011;25606;42.686;23.136;2023-03-01T09:02:08;5.13;;;4.63;;
8281;SDS011;25606;42.686;23.136;2023-03-01T09:05:19;6.23;;;5.20;;
8281;SDS011;25606;42.686;23.136;2023-03-01T09:07:31;7.20;;;6.50;;
8281;SDS011;25606;42.686;23.136;2023-03-01T09:10:08;7.63;;;5.67;;
8281;SDS011;25606;42.686;23.136;2023-03-01T09:12:35;6.47;;;5.67;;
8281;SDS011;25606;42.686;23.136;2023-03-01T09:15:03;5.47;;;4.77;;
8281;SDS011;25606;42.686;23.136;2023-03-01T09:17:33;6.67;;;5.50;;
8281;SDS011;25606;42.686;23.136;2023-03-01T09:20:01;4.80;;;4.37;;
8281;SDS011;25606;42.686;23.136;2023-03-01T09:22:30;6.53;;;4.97;;
8281;SDS011;25606;42.686;23.136;2023-03-01T09:25:01;4.70;;;4.17;;
8281;SDS011;25606;42.686;23.136;2023-03-01T09:27:28;5.23;;;4.23;;
8281;SDS011;25606;42.686;23.136;2023-03-01T09:29:56;5.10;;;4.57;;
8281;SDS011;25606;42.686;23.136;2023-03-01T09:32:24;4.60;;;4.20;;
8281;SDS011;25606;42.686;23.136;2023-03-01T09:34:54;3.33;;;3.03;;
8281;SDS011;25606;42.686;23.136;2023-03-01T09:37:29;3.77;;;3.43;;
8281;SDS011;25606;42.686;23.136;2023-03-01T09:39:56;6.30;;;4.40;;
8281;SDS011;25606;42.686;23.136;2023-03-01T09:42:26;4.10;;;3.70;;
8281;SDS011;25606;42.686;23.136;2023-03-01T09:45:00;4.63;;;4.20;;
8281;SDS011;25606;42.686;23.136;2023-03-01T09:47:29;4.10;;;3.70;;
8281;SDS011;25606;42.686;23.136;2023-03-01T09:50:05;5.27;;;3.90;;
8281;SDS011;25606;42.686;23.136;2023-03-01T09:52:37;4.63;;;3.60;;
8281;SDS011;25606;42.686;23.136;2023-03-01T09:55:09;4.33;;;3.93;;
8281;SDS011;25606;42.686;23.136;2023-03-01T09:57:39;4.27;;;3.93;;
8281;SDS011;25606;42.686;23.136;2023-03-01T10:00:12;4.60;;;4.17;;
8281;SDS011;25606;42.686;23.136;2023-03-01T10:02:42;4.27;;;3.87;;
8281;SDS011;25606;42.686;23.136;2023-03-01T10:05:16;5.20;;;4.27;;
8281;SDS011;25606;42.686;23.136;2023-03-01T10:07:48;4.47;;;4.07;;
8281;SDS011;25606;42.686;23.136;2023-03-01T10:10:21;4.93;;;4.43;;
8281;SDS011;25606;42.686;23.136;2023-03-01T10:12:50;3.90;;;3.50;;
8281;SDS011;25606;42.686;23.136;2023-03-01T10:15:19;3.50;;;3.20;;
8281;SDS011;25606;42.686;23.136;2023-03-01T10:17:50;4.67;;;3.53;;
8281;SDS011;25606;42.686;23.136;2023-03-01T10:20:22;3.93;;;3.53;;
8281;SDS011;25606;42.686;23.136;2023-03-01T10:22:50;3.33;;;3.03;;
8281;SDS011;25606;42.686;23.136;2023-03-01T10:25:22;3.43;;;3.13;;
8281;SDS011;25606;42.686;23.136;2023-03-01T10:27:51;4.73;;;3.50;;
8281;SDS011;25606;42.686;23.136;2023-03-01T10:30:19;3.87;;;3.13;;
8281;SDS011;25606;42.686;23.136;2023-03-01T10:32:47;3.77;;;3.10;;
8281;SDS011;25606;42.686;23.136;2023-03-01T10:35:16;4.37;;;3.03;;
8281;SDS011;25606;42.686;23.136;2023-03-01T10:37:58;4.40;;;3.87;;
8281;SDS011;25606;42.686;23.136;2023-03-01T10:40:26;3.53;;;2.80;;
8281;SDS011;25606;42.686;23.136;2023-03-01T10:42:53;4.37;;;3.60;;
8281;SDS011;25606;42.686;23.136;2023-03-01T10:45:27;3.47;;;3.17;;
8281;SDS011;25606;42.686;23.136;2023-03-01T10:48:03;6.00;;;4.27;;
8281;SDS011;25606;42.686;23.136;2023-03-01T10:50:31;5.40;;;4.27;;
8281;SDS011;25606;42.686;23.136;2023-03-01T10:53:01;4.23;;;3.37;;
8281;SDS011;25606;42.686;23.136;2023-03-01T10:55:31;4.13;;;3.53;;
8281;SDS011;25606;42.686;23.136;2023-03-01T10:58:07;4.03;;;3.10;;
8281;SDS011;25606;42.686;23.136;2023-03-01T11:00:35;3.33;;;3.10;;
8281;SDS011;25606;42.686;23.136;2023-03-01T11:03:13;4.77;;;3.77;;
8281;SDS011;25606;42.686;23.136;2023-03-01T11:05:50;3.80;;;3.30;;
8281;SDS011;25606;42.686;23.136;2023-03-01T11:08:30;3.30;;;3.00;;
8281;SDS011;25606;42.686;23.136;2023-03-01T11:11:04;4.50;;;3.33;;
8281;SDS011;25606;42.686;23.136;2023-03-01T11:13:33;3.60;;;3.30;;
8281;SDS011;25606;42.686;23.136;2023-03-01T11:16:01;4.90;;;3.53;;
8281;SDS011;25606;42.686;23.136;2023-03-01T11:18:29;4.03;;;3.60;;
8281;SDS011;25606;42.686;23.136;2023-03-01T11:20:57;3.57;;;3.20;;
8281;SDS011;25606;42.686;23.136;2023-03-01T11:23:26;5.10;;;4.07;;
8281;SDS011;25606;42.686;23.136;2023-03-01T11:25:56;4.70;;;3.50;;
8281;SDS011;25606;42.686;23.136;2023-03-01T11:28:24;5.10;;;4.33;;
8281;SDS011;25606;42.686;23.136;2023-03-01T11:30:53;4.53;;;3.53;;
8281;SDS011;25606;42.686;23.136;2023-03-01T11:33:24;5.20;;;3.70;;
8281;SDS011;25606;42.686;23.136;2023-03-01T11:36:00;6.30;;;4.07;;
8281;SDS011;25606;42.686;23.136;2023-03-01T11:38:29;4.40;;;4.00;;
8281;SDS011;25606;42.686;23.136;2023-03-01T11:41:01;4.87;;;3.70;;
8281;SDS011;25606;42.686;23.136;2023-03-01T11:43:33;4.13;;;3.73;;
8281;SDS011;25606;42.686;23.136;2023-03-01T11:46:11;4.37;;;3.60;;
8281;SDS011;25606;42.686;23.136;2023-03-01T11:48:50;5.17;;;3.70;;
8281;SDS011;25606;42.686;23.136;2023-03-01T11:51:22;5.17;;;4.20;;
8281;SDS011;25606;42.686;23.136;2023-03-01T11:53:55;4.20;;;3.80;;
8281;SDS011;25606;42.686;23.136;2023-03-01T11:56:28;4.40;;;3.90;;
8281;SDS011;25606;42.686;23.136;2023-03-01T11:59:02;4.77;;;3.87;;
8281;SDS011;25606;42.686;23.136;2023-03-01T12:01:32;4.30;;;3.57;;
8281;SDS011;25606;42.686;23.136;2023-03-01T12:04:30;4.10;;;3.70;;
8281;SDS011;25606;42.686;23.136;2023-03-01T12:07:03;4.37;;;3.70;;
8281;SDS011;25606;42.686;23.136;2023-03-01T12:09:38;4.53;;;3.80;;
8281;SDS011;25606;42.686;23.136;2023-03-01T12:12:22;5.10;;;3.97;;
8281;SDS011;25606;42.686;23.136;2023-03-01T12:14:54;4.90;;;3.80;;
8281;SDS011;25606;42.686;23.136;2023-03-01T12:17:27;4.80;;;3.70;;
8281;SDS011;25606;42.686;23.136;2023-03-01T12:20:05;4.20;;;3.23;;
8281;SDS011;25606;42.686;23.136;2023-03-01T12:22:42;4.10;;;3.63;;
8281;SDS011;25606;42.686;23.136;2023-03-01T12:25:14;4.50;;;3.83;;
8281;SDS011;25606;42.686;23.136;2023-03-01T12:27:51;4.47;;;4.03;;
8281;SDS011;25606;42.686;23.136;2023-03-01T12:30:25;3.83;;;3.00;;
8281;SDS011;25606;42.686;23.136;2023-03-01T12:32:57;5.17;;;3.50;;
8281;SDS011;25606;42.686;23.136;2023-03-01T12:35:33;4.70;;;3.80;;
8281;SDS011;25606;42.686;23.136;2023-03-01T12:38:06;5.13;;;4.23;;
8281;SDS011;25606;42.686;23.136;2023-03-01T12:40:42;4.50;;;3.80;;
8281;SDS011;25606;42.686;23.136;2023-03-01T12:43:20;4.63;;;4.00;;
8281;SDS011;25606;42.686;23.136;2023-03-01T12:45:54;4.30;;;3.87;;
8281;SDS011;25606;42.686;23.136;2023-03-01T12:48:28;4.73;;;4.30;;
8281;SDS011;25606;42.686;23.136;2023-03-01T12:50:59;4.43;;;3.90;;
8281;SDS011;25606;42.686;23.136;2023-03-01T12:53:28;5.93;;;4.60;;
8281;SDS011;25606;42.686;23.136;2023-03-01T12:55:58;5.87;;;5.27;;
8281;SDS011;25606;42.686;23.136;2023-03-01T12:58:29;4.33;;;3.67;;
8281;SDS011;25606;42.686;23.136;2023-03-01T13:01:01;6.33;;;4.20;;
8281;SDS011;25606;42.686;23.136;2023-03-01T13:03:29;6.17;;;4.17;;
8281;SDS011;25606;42.686;23.136;2023-03-01T13:06:04;5.73;;;4.30;;
8281;SDS011;25606;42.686;23.136;2023-03-01T13:08:36;4.30;;;3.90;;
8281;SDS011;25606;42.686;23.136;2023-03-01T13:11:11;5.20;;;4.10;;
8281;SDS011;25606;42.686;23.136;2023-03-01T13:13:40;5.27;;;3.57;;
8281;SDS011;25606;42.686;23.136;2023-03-01T13:16:21;5.37;;;4.17;;
8281;SDS011;25606;42.686;23.136;2023-03-01T13:18:49;5.47;;;4.00;;
8281;SDS011;25606;42.686;23.136;2023-03-01T13:21:28;3.90;;;3.50;;
8281;SDS011;25606;42.686;23.136;2023-03-01T13:23:55;5.23;;;4.23;;
8281;SDS011;25606;42.686;23.136;2023-03-01T13:26:23;9.97;;;6.57;;
8281;SDS011;25606;42.686;23.136;2023-03-01T13:28:55;5.53;;;4.83;;
8281;SDS011;25606;42.686;23.136;2023-03-01T13:34:43;6.97;;;4.33;;
8281;SDS011;25606;42.686;23.136;2023-03-01T13:37:19;5.80;;;4.50;;
8281;SDS011;25606;42.686;23.136;2023-03-01T13:39:47;5.03;;;4.63;;
8281;SDS011;25606;42.686;23.136;2023-03-01T13:45:04;5.53;;;4.10;;
8281;SDS011;25606;42.686;23.136;2023-03-01T13:47:32;5.80;;;4.07;;
8281;SDS011;25606;42.686;23.136;2023-03-01T13:50:02;5.57;;;4.40;;
8281;SDS011;25606;42.686;23.136;2023-03-01T13:52:34;6.43;;;4.20;;
8281;SDS011;25606;42.686;23.136;2023-03-01T13:55:03;4.20;;;3.70;;
8281;SDS011;25606;42.686;23.136;2023-03-01T13:57:32;3.80;;;3.40;;
8281;SDS011;25606;42.686;23.136;2023-03-01T14:00:00;5.43;;;4.00;;
8281;SDS011;25606;42.686;23.136;2023-03-01T14:02:29;5.20;;;3.57;;
8281;SDS011;25606;42.686;23.136;2023-03-01T14:04:56;3.80;;;3.47;;
8281;SDS011;25606;42.686;23.136;2023-03-01T14:07:24;4.27;;;3.50;;
8281;SDS011;25606;42.686;23.136;2023-03-01T14:09:54;4.67;;;3.77;;
8281;SDS011;25606;42.686;23.136;2023-03-01T14:12:36;4.93;;;3.47;;
8281;SDS011;25606;42.686;23.136;2023-03-01T14:15:06;4.23;;;3.70;;
8281;SDS011;25606;42.686;23.136;2023-03-01T14:17:46;3.93;;;3.60;;
8281;SDS011;25606;42.686;23.136;2023-03-01T14:20:19;4.30;;;3.90;;
8281;SDS011;25606;42.686;23.136;2023-03-01T14:22:47;5.20;;;4.07;;
8281;SDS011;25606;42.686;23.136;2023-03-01T14:25:20;5.70;;;4.70;;
8281;SDS011;25606;42.686;23.136;2023-03-01T14:27:51;4.37;;;3.77;;
8281;SDS011;25606;42.686;23.136;2023-03-01T14:30:20;5.63;;;4.60;;
8281;SDS011;25606;42.686;23.136;2023-03-01T14:32:53;6.70;;;4.10;;
8281;SDS011;25606;42.686;23.136;2023-03-01T14:35:21;4.63;;;3.80;;
8281;SDS011;25606;42.686;23.136;2023-03-01T14:37:49;4.50;;;4.07;;
8281;SDS011;25606;42.686;23.136;2023-03-01T14:40:23;6.53;;;4.23;;
8281;SDS011;25606;42.686;23.136;2023-03-01T14:42:51;4.50;;;3.97;;
8281;SDS011;25606;42.686;23.136;2023-03-01T14:45:19;5.47;;;4.50;;
8281;SDS011;25606;42.686;23.136;2023-03-01T14:47:46;6.33;;;4.23;;
8281;SDS011;25606;42.686;23.136;2023-03-01T14:50:18;5.07;;;4.17;;
8281;SDS011;25606;42.686;23.136;2023-03-01T14:52:47;6.90;;;4.20;;
8281;SDS011;25606;42.686;23.136;2023-03-01T14:55:16;5.00;;;4.00;;
8281;SDS011;25606;42.686;23.136;2023-03-01T14:57:46;5.43;;;3.60;;
8281;SDS011;25606;42.686;23.136;2023-03-01T15:00:16;5.60;;;4.90;;
8281;SDS011;25606;42.686;23.136;2023-03-01T15:02:45;5.53;;;4.77;;
8281;SDS011;25606;42.686;23.136;2023-03-01T15:05:13;4.60;;;3.93;;